createdAt,value
2019-02-27T05:00:59.276Z,98.54
2019-02-27T05:01:56.963Z,98.82
2019-02-27T05:03:49.631Z,98.63
2019-02-27T05:04:49.527Z,99.20
2019-02-27T05:06:42.202Z,99.58
2019-02-27T05:07:42.078Z,99.39
2019-02-27T05:09:34.724Z,99.39
2019-02-27T05:10:34.615Z,98.82
2019-02-27T05:12:27.281Z,98.82
2019-02-27T05:13:27.162Z,98.72
2019-02-27T05:15:19.814Z,99.29
2019-02-27T05:16:19.699Z,99.33
2019-02-27T05:18:12.377Z,99.20
2019-02-27T05:19:12.245Z,99.71
2019-02-27T05:21:04.911Z,99.29
2019-02-27T05:22:04.791Z,99.33
2019-02-27T05:23:57.465Z,99.29
2019-02-27T05:24:57.327Z,99.71
2019-02-27T05:26:50.016Z,99.99
2019-02-27T05:27:49.873Z,99.99
2019-02-27T05:29:42.555Z,99.39
2019-02-27T05:30:44.716Z,99.20
2019-02-27T05:32:35.103Z,99.39
2019-02-27T05:33:36.053Z,99.86
2019-02-27T05:35:27.617Z,99.99
2019-02-27T05:36:28.987Z,99.99
2019-02-27T05:38:20.178Z,99.99
2019-02-27T05:39:20.042Z,99.99
2019-02-27T05:41:12.722Z,99.99
2019-02-27T05:42:13.227Z,99.99
2019-02-27T05:44:05.263Z,99.99
2019-02-27T05:45:05.137Z,99.99
2019-02-27T05:46:57.790Z,99.99
2019-02-27T05:47:57.679Z,99.99
2019-02-27T05:49:50.352Z,99.99
2019-02-27T05:50:50.218Z,99.99
2019-02-27T05:52:42.875Z,99.99
2019-02-27T05:53:42.770Z,99.99
2019-02-27T05:55:39.022Z,99.99
2019-02-27T05:56:35.323Z,99.99
2019-02-27T05:58:27.978Z,99.99
2019-02-27T05:59:29.454Z,99.99
2019-02-27T06:01:20.534Z,99.99
2019-02-27T06:02:20.408Z,99.99
2019-02-27T06:04:13.073Z,99.99
2019-02-27T06:05:12.952Z,99.99
2019-02-27T06:07:05.636Z,99.99
2019-02-27T06:08:05.500Z,99.99
2019-02-27T06:09:58.814Z,99.99
2019-02-27T06:10:58.314Z,99.99
2019-02-27T06:12:50.820Z,99.99
2019-02-27T06:13:50.690Z,99.90
2019-02-27T06:15:43.352Z,99.99
2019-02-27T06:16:43.282Z,99.99
2019-02-27T06:18:35.918Z,99.99
2019-02-27T06:19:35.770Z,99.99
2019-02-27T06:21:28.431Z,99.99
2019-02-27T06:22:30.542Z,99.99
2019-02-27T06:24:21.647Z,99.99
2019-02-27T06:25:23.201Z,99.99
2019-02-27T06:27:13.530Z,99.99
2019-02-27T06:28:13.403Z,99.99
2019-02-27T06:30:06.079Z,99.99
2019-02-27T06:31:05.946Z,99.99
2019-02-27T06:32:58.610Z,99.99
2019-02-27T06:33:59.061Z,99.99
2019-02-27T06:35:51.166Z,99.99
2019-02-27T06:36:51.034Z,99.99
2019-02-27T06:38:43.711Z,99.99
2019-02-27T06:39:43.581Z,99.99
2019-02-27T06:41:36.245Z,99.99
2019-02-27T06:42:36.134Z,99.99
2019-02-27T06:44:28.811Z,99.99
2019-02-27T06:45:28.673Z,99.99
2019-02-27T06:47:21.329Z,99.99
2019-02-27T06:48:21.217Z,99.99
2019-02-27T06:50:13.891Z,99.99
2019-02-27T06:51:13.763Z,99.99
2019-02-27T06:53:06.422Z,99.99
2019-02-27T06:54:06.314Z,99.99
2019-02-27T06:56:02.781Z,99.99
2019-02-27T06:56:58.882Z,99.99
2019-02-27T06:58:51.545Z,99.99
2019-02-27T06:59:51.428Z,99.99
2019-02-27T07:01:45.142Z,99.99
2019-02-27T07:02:43.979Z,99.99
2019-02-27T07:04:39.637Z,99.99
2019-02-27T07:05:36.522Z,99.99
2019-02-27T07:07:31.274Z,99.99
2019-02-27T07:08:29.067Z,99.99
2019-02-27T07:10:21.731Z,99.99
2019-02-27T07:11:21.614Z,99.99
2019-02-27T07:13:14.300Z,99.96
2019-02-27T07:14:14.166Z,99.99
2019-02-27T07:16:06.820Z,99.99
2019-02-27T07:17:06.702Z,99.99
2019-02-27T07:18:59.382Z,99.67
2019-02-27T07:19:59.248Z,99.48
2019-02-27T07:21:51.920Z,98.63
2019-02-27T07:22:51.802Z,98.72
2019-02-27T07:24:44.477Z,98.16
2019-02-27T07:25:44.356Z,98.16
2019-02-27T07:27:37.046Z,98.16
2019-02-27T07:28:36.896Z,98.16
2019-02-27T07:30:29.581Z,97.87
2019-02-27T07:31:29.476Z,97.83
2019-02-27T07:33:22.156Z,97.83
2019-02-27T07:34:22.004Z,97.16
2019-02-27T07:36:14.670Z,96.88
2019-02-27T07:37:14.590Z,96.50
2019-02-27T07:39:07.241Z,96.41
2019-02-27T07:40:08.588Z,96.41
2019-02-27T07:41:59.784Z,95.26
2019-02-27T07:42:59.674Z,95.07
2019-02-27T07:44:52.433Z,94.98
2019-02-27T07:45:54.259Z,95.26
2019-02-27T07:47:45.000Z,96.12
2019-02-27T07:48:44.860Z,95.36
2019-02-27T07:50:37.538Z,95.26
2019-02-27T07:51:37.412Z,95.36
2019-02-27T07:53:30.075Z,95.45
2019-02-27T07:54:29.963Z,95.36
2019-02-27T07:56:22.640Z,95.26
2019-02-27T07:57:22.514Z,95.22
2019-02-27T07:59:15.165Z,94.18
2019-02-27T08:00:15.701Z,93.99
2019-02-27T08:02:07.732Z,93.89
2019-02-27T08:03:09.864Z,93.99
2019-02-27T08:05:00.271Z,93.41
2019-02-27T08:06:02.429Z,93.70
2019-02-27T08:07:52.827Z,93.04
2019-02-27T08:08:56.942Z,92.85
2019-02-27T08:10:45.408Z,92.71
2019-02-27T08:11:47.315Z,93.18
2019-02-27T08:13:37.904Z,92.52
2019-02-27T08:14:37.938Z,92.42
2019-02-27T08:16:30.471Z,91.56
2019-02-27T08:17:30.339Z,91.56
2019-02-27T08:19:23.016Z,89.95
2019-02-27T08:20:22.904Z,90.33
2019-02-27T08:22:15.580Z,89.67
2019-02-27T08:23:15.676Z,89.48
2019-02-27T08:25:08.111Z,87.72
2019-02-27T08:26:07.999Z,86.68
2019-02-27T08:28:00.734Z,87.24
2019-02-27T08:29:00.540Z,83.92
2019-02-27T08:30:53.221Z,81.49
2019-02-27T08:31:53.090Z,79.31
2019-02-27T08:33:45.791Z,75.99
2019-02-27T08:34:45.667Z,75.70
2019-02-27T08:36:38.437Z,75.23
2019-02-27T08:37:38.311Z,75.42
2019-02-27T08:39:30.979Z,74.08
2019-02-27T08:40:30.888Z,74.66
2019-02-27T08:42:23.550Z,73.93
2019-02-27T08:43:23.422Z,73.74
2019-02-27T08:45:19.605Z,71.75
2019-02-27T08:46:15.974Z,71.37
2019-02-27T08:48:08.812Z,70.42
2019-02-27T08:49:08.520Z,70.42
2019-02-27T08:51:05.709Z,69.75
2019-02-27T08:52:01.073Z,69.18
2019-02-27T08:53:53.749Z,69.79
2019-02-27T08:54:53.625Z,69.50
2019-02-27T08:56:47.211Z,69.31
2019-02-27T08:57:46.172Z,69.02
2019-02-27T08:59:39.812Z,67.22
2019-02-27T09:00:38.710Z,68.27
2019-02-27T09:02:31.383Z,68.27
2019-02-27T09:03:31.267Z,67.79
2019-02-27T09:05:23.952Z,67.73
2019-02-27T09:06:27.350Z,67.44
2019-02-27T09:08:16.643Z,66.68
2019-02-27T09:09:17.953Z,66.59
2019-02-27T09:11:09.209Z,65.83
2019-02-27T09:12:13.108Z,65.92
2019-02-27T09:14:01.757Z,65.67
2019-02-27T09:15:01.470Z,65.00
2019-02-27T09:16:54.133Z,63.86
2019-02-27T09:17:54.024Z,65.19
2019-02-27T09:19:46.856Z,63.57
2019-02-27T09:20:46.576Z,63.86
2019-02-27T09:22:39.233Z,63.29
2019-02-27T09:23:39.124Z,63.39
2019-02-27T09:25:31.864Z,63.89
2019-02-27T09:26:36.096Z,62.94
2019-02-27T09:28:24.348Z,62.65
2019-02-27T09:29:24.239Z,61.90
2019-02-27T09:31:17.075Z,62.56
2019-02-27T09:32:16.789Z,62.65
2019-02-27T09:34:09.664Z,61.13
2019-02-27T09:35:09.346Z,60.66
2019-02-27T09:37:02.007Z,61.35
2019-02-27T09:38:01.903Z,60.78
2019-02-27T09:39:54.586Z,60.78
2019-02-27T09:40:54.455Z,60.40
2019-02-27T09:42:47.121Z,59.06
2019-02-27T09:43:47.011Z,57.82
2019-02-27T09:45:39.853Z,57.86
2019-02-27T09:46:39.566Z,57.76
2019-02-27T09:48:33.489Z,56.71
2019-02-27T09:49:32.122Z,56.52
2019-02-27T09:51:24.805Z,56.93
2019-02-27T09:52:24.679Z,56.65
2019-02-27T09:54:17.522Z,56.84
2019-02-27T09:55:20.188Z,56.17
2019-02-27T09:57:09.897Z,56.46
2019-02-27T09:58:11.165Z,55.79
2019-02-27T10:00:03.021Z,54.45
2019-02-27T10:01:03.172Z,54.36
2019-02-27T10:02:55.012Z,54.45
2019-02-27T10:03:55.546Z,53.41
2019-02-27T10:05:47.928Z,52.92
2019-02-27T10:06:47.459Z,52.92
2019-02-27T10:08:40.541Z,53.41
2019-02-27T10:09:40.435Z,51.81
2019-02-27T10:11:32.706Z,51.90
2019-02-27T10:12:32.576Z,52.28
2019-02-27T10:14:25.241Z,52.38
2019-02-27T10:15:25.917Z,52.00
2019-02-27T10:17:17.844Z,51.71
2019-02-27T10:18:18.963Z,51.23
2019-02-27T10:20:10.567Z,51.17
2019-02-27T10:21:12.053Z,50.49
2019-02-27T10:23:02.945Z,50.31
2019-02-27T10:24:04.787Z,50.21
2019-02-27T10:25:55.669Z,50.59
2019-02-27T10:26:55.381Z,49.93
2019-02-27T10:28:48.056Z,48.99
2019-02-27T10:29:48.511Z,49.47
2019-02-27T10:31:40.698Z,48.80
2019-02-27T10:32:40.504Z,48.90
2019-02-27T10:34:33.168Z,48.13
2019-02-27T10:35:34.740Z,48.23
2019-02-27T10:37:25.778Z,47.75
2019-02-27T10:38:26.297Z,47.56
2019-02-27T10:40:18.300Z,47.37
2019-02-27T10:41:18.187Z,46.92
2019-02-27T10:43:10.872Z,46.25
2019-02-27T10:44:10.751Z,45.96
2019-02-27T10:46:03.445Z,45.01
2019-02-27T10:47:03.326Z,44.72
2019-02-27T10:48:56.016Z,43.50
2019-02-27T10:49:55.889Z,43.30
2019-02-27T10:51:48.577Z,42.07
2019-02-27T10:52:50.015Z,41.97
2019-02-27T10:54:41.137Z,41.20
2019-02-27T10:55:41.014Z,41.01
2019-02-27T10:57:38.193Z,41.20
2019-02-27T10:58:33.570Z,41.30
2019-02-27T11:00:26.275Z,41.39
2019-02-27T11:01:26.140Z,41.01
2019-02-27T11:03:18.800Z,41.22
2019-02-27T11:04:18.694Z,41.22
2019-02-27T11:06:11.636Z,41.61
2019-02-27T11:07:13.195Z,41.80
2019-02-27T11:09:04.649Z,41.32
2019-02-27T11:10:03.817Z,41.41
2019-02-27T11:11:56.663Z,40.84
2019-02-27T11:12:56.378Z,40.65
2019-02-27T11:14:49.091Z,40.75
2019-02-27T11:15:48.974Z,40.75
2019-02-27T11:17:41.667Z,41.82
2019-02-27T11:18:42.805Z,42.30
2019-02-27T11:20:34.239Z,42.30
2019-02-27T11:21:34.106Z,42.20
2019-02-27T11:23:26.776Z,42.40
2019-02-27T11:24:26.666Z,42.11
2019-02-27T11:26:19.354Z,41.63
2019-02-27T11:27:19.297Z,41.63
2019-02-27T11:29:12.057Z,41.82
2019-02-27T11:30:11.795Z,42.40
2019-02-27T11:32:04.495Z,42.30
2019-02-27T11:33:04.372Z,41.82
2019-02-27T11:34:57.195Z,42.51
2019-02-27T11:35:56.938Z,42.13
2019-02-27T11:37:49.627Z,42.03
2019-02-27T11:38:49.497Z,41.74
2019-02-27T11:40:42.939Z,41.84
2019-02-27T11:41:42.059Z,42.13
2019-02-27T11:43:34.752Z,41.36
2019-02-27T11:44:34.633Z,41.07
2019-02-27T11:46:27.314Z,41.77
2019-02-27T11:47:27.190Z,42.24
2019-02-27T11:49:19.881Z,42.14
2019-02-27T11:50:19.760Z,41.67
2019-02-27T11:52:12.929Z,41.86
2019-02-27T11:53:12.807Z,41.96
2019-02-27T11:55:05.501Z,42.05
2019-02-27T11:56:05.382Z,41.96
2019-02-27T11:57:58.053Z,42.05
2019-02-27T11:58:57.953Z,41.77
2019-02-27T12:00:50.674Z,42.05
2019-02-27T12:01:50.516Z,41.48
2019-02-27T12:03:45.765Z,41.09
2019-02-27T12:04:43.112Z,41.28
2019-02-27T12:06:35.957Z,41.02
2019-02-27T12:07:35.679Z,41.88
2019-02-27T12:09:28.410Z,41.97
2019-02-27T12:10:28.297Z,42.17
2019-02-27T12:12:23.970Z,41.60
2019-02-27T12:13:21.761Z,42.27
2019-02-27T12:15:14.446Z,41.88
2019-02-27T12:16:17.511Z,41.11
2019-02-27T12:18:06.999Z,41.13
2019-02-27T12:19:08.736Z,41.40
2019-02-27T12:20:59.600Z,41.71
2019-02-27T12:22:00.231Z,41.90
2019-02-27T12:23:52.142Z,43.03
2019-02-27T12:24:52.858Z,43.13
2019-02-27T12:26:44.737Z,43.03
2019-02-27T12:27:49.270Z,43.03
2019-02-27T12:29:37.443Z,42.55
2019-02-27T12:30:37.925Z,42.27
2019-02-27T12:32:29.882Z,42.27
2019-02-27T12:33:29.971Z,42.17
2019-02-27T12:35:22.438Z,42.47
2019-02-27T12:36:22.340Z,42.38
2019-02-27T12:38:15.027Z,41.71
2019-02-27T12:39:15.618Z,42.19
2019-02-27T12:41:07.574Z,42.10
2019-02-27T12:42:07.840Z,42.19
2019-02-27T12:44:00.315Z,42.10
2019-02-27T12:45:00.044Z,42.19
2019-02-27T12:46:52.739Z,42.50
2019-02-27T12:47:52.616Z,42.21
2019-02-27T12:49:45.294Z,41.83
2019-02-27T12:50:45.188Z,41.93
2019-02-27T12:52:37.879Z,41.93
2019-02-27T12:53:37.755Z,42.02
2019-02-27T12:55:33.152Z,42.50
2019-02-27T12:56:30.344Z,42.60
2019-02-27T12:58:24.316Z,42.40
2019-02-27T12:59:22.904Z,42.60
2019-02-27T13:01:16.445Z,42.88
2019-02-27T13:02:15.481Z,43.36
2019-02-27T13:04:08.178Z,43.36
2019-02-27T13:05:08.054Z,42.60
2019-02-27T13:07:00.915Z,43.07
2019-02-27T13:08:00.671Z,43.36
2019-02-27T13:09:53.486Z,43.17
2019-02-27T13:10:53.225Z,42.98
2019-02-27T13:12:45.934Z,43.55
2019-02-27T13:13:45.793Z,43.27
2019-02-27T13:15:41.070Z,43.27
2019-02-27T13:16:38.406Z,43.65
2019-02-27T13:18:32.076Z,43.19
2019-02-27T13:19:30.929Z,43.19
2019-02-27T13:21:23.677Z,43.29
2019-02-27T13:22:26.258Z,42.23
2019-02-27T13:24:16.383Z,43.57
2019-02-27T13:25:16.114Z,43.00
2019-02-27T13:27:09.849Z,42.13
2019-02-27T13:28:08.685Z,42.04
2019-02-27T13:30:08.754Z,43.00
2019-02-27T13:31:01.272Z,43.00
2019-02-27T13:32:54.094Z,43.00
2019-02-27T13:33:53.839Z,42.43
2019-02-27T13:35:46.532Z,42.61
2019-02-27T13:36:46.412Z,43.19
2019-02-27T13:38:39.247Z,43.10
2019-02-27T13:39:38.985Z,42.71
2019-02-27T13:41:31.691Z,42.81
2019-02-27T13:42:31.559Z,42.43
2019-02-27T13:44:24.392Z,42.61
2019-02-27T13:45:24.140Z,42.44
2019-02-27T13:47:16.839Z,42.52
2019-02-27T13:48:16.738Z,43.60
2019-02-27T13:50:09.394Z,42.06
2019-02-27T13:51:09.295Z,41.96
2019-02-27T13:53:02.012Z,41.77
2019-02-27T13:54:01.903Z,41.29
2019-02-27T13:55:54.614Z,41.20
2019-02-27T13:56:54.479Z,41.49
2019-02-27T13:58:47.366Z,41.00
2019-02-27T13:59:47.084Z,41.67
2019-02-27T14:01:39.744Z,41.58
2019-02-27T14:02:39.697Z,41.96
2019-02-27T14:04:32.506Z,42.25
2019-02-27T14:05:35.125Z,42.16
2019-02-27T14:07:24.921Z,42.44
2019-02-27T14:08:24.821Z,42.06
2019-02-27T14:10:20.506Z,41.77
2019-02-27T14:11:17.388Z,41.29
2019-02-27T14:13:10.072Z,40.91
2019-02-27T14:14:09.968Z,41.49
2019-02-27T14:16:02.665Z,41.20
2019-02-27T14:17:02.539Z,41.49
2019-02-27T14:18:55.219Z,41.58
2019-02-27T14:19:55.414Z,40.91
2019-02-27T14:21:47.808Z,40.73
2019-02-27T14:22:47.682Z,40.47
2019-02-27T14:24:40.376Z,39.12
2019-02-27T14:25:40.266Z,39.61
2019-02-27T14:27:32.969Z,40.55
2019-02-27T14:28:32.844Z,40.64
2019-02-27T14:30:25.525Z,41.22
2019-02-27T14:31:25.416Z,41.60
2019-02-27T14:33:19.281Z,42.08
2019-02-27T14:34:17.993Z,42.37
2019-02-27T14:36:10.673Z,42.35
2019-02-27T14:37:10.570Z,43.31
2019-02-27T14:39:03.261Z,43.50
2019-02-27T14:40:04.466Z,43.12
2019-02-27T14:41:56.469Z,42.73
2019-02-27T14:42:55.711Z,43.40
2019-02-27T14:44:48.409Z,43.12
2019-02-27T14:45:48.283Z,43.02
2019-02-27T14:47:40.972Z,43.02
2019-02-27T14:48:40.858Z,43.02
2019-02-27T14:50:34.546Z,43.21
2019-02-27T14:51:33.424Z,43.60
2019-02-27T14:53:26.604Z,43.79
2019-02-27T14:54:29.144Z,43.79
2019-02-27T14:56:19.168Z,43.50
2019-02-27T14:57:19.059Z,43.57
2019-02-27T14:59:11.926Z,43.40
2019-02-27T15:00:11.636Z,43.40
2019-02-27T15:02:04.471Z,43.70
2019-02-27T15:03:04.263Z,43.70
2019-02-27T15:04:57.134Z,43.67
2019-02-27T15:05:56.784Z,43.10
2019-02-27T15:07:49.461Z,43.67
2019-02-27T15:08:57.659Z,43.19
2019-02-27T15:10:42.069Z,43.87
2019-02-27T15:11:41.934Z,43.67
2019-02-27T15:13:34.804Z,43.67
2019-02-27T15:14:34.509Z,43.87
2019-02-27T15:16:27.185Z,43.77
2019-02-27T15:17:27.076Z,43.87
2019-02-27T15:19:21.263Z,43.96
2019-02-27T15:20:21.138Z,44.24
2019-02-27T15:22:13.832Z,44.92
2019-02-27T15:23:13.722Z,45.09
2019-02-27T15:25:08.307Z,44.70
2019-02-27T15:26:06.290Z,44.70
2019-02-27T15:27:59.939Z,44.90
2019-02-27T15:28:58.868Z,44.80
2019-02-27T15:30:51.708Z,44.61
2019-02-27T15:31:52.250Z,44.51
2019-02-27T15:33:44.278Z,44.80
2019-02-27T15:34:45.909Z,44.90
2019-02-27T15:36:36.718Z,44.90
2019-02-27T15:37:37.427Z,44.70
2019-02-27T15:39:29.311Z,44.70
2019-02-27T15:40:30.115Z,44.42
2019-02-27T15:42:21.862Z,44.51
2019-02-27T15:43:21.753Z,44.13
2019-02-27T15:45:15.341Z,44.51
2019-02-27T15:46:14.313Z,44.51
2019-02-27T15:48:07.707Z,44.32
2019-02-27T15:49:06.902Z,44.42
2019-02-27T15:50:59.607Z,44.42
2019-02-27T15:51:59.486Z,44.42
2019-02-27T15:53:52.164Z,44.23
2019-02-27T15:54:52.053Z,44.23
2019-02-27T15:56:45.531Z,44.42
2019-02-27T15:57:44.623Z,43.84
2019-02-27T15:59:41.746Z,43.94
2019-02-27T16:00:37.191Z,44.42
2019-02-27T16:02:29.894Z,44.32
2019-02-27T16:03:29.771Z,44.32
2019-02-27T16:05:22.469Z,44.97
2019-02-27T16:06:22.345Z,44.87
2019-02-27T16:08:15.418Z,44.87
2019-02-27T16:09:15.458Z,45.16
2019-02-27T16:11:07.597Z,44.78
2019-02-27T16:12:07.473Z,45.26
2019-02-27T16:14:00.343Z,45.26
2019-02-27T16:15:00.136Z,45.16
2019-02-27T16:16:54.083Z,45.62
2019-02-27T16:17:52.634Z,46.19
2019-02-27T16:19:45.310Z,46.86
2019-02-27T16:20:47.040Z,46.29
2019-02-27T16:22:37.913Z,47.06
2019-02-27T16:23:38.147Z,46.96
2019-02-27T16:25:30.466Z,47.13
2019-02-27T16:26:30.357Z,47.42
2019-02-27T16:28:23.051Z,47.32
2019-02-27T16:29:23.646Z,47.42
2019-02-27T16:31:15.743Z,47.51
2019-02-27T16:32:15.564Z,47.61
2019-02-27T16:34:08.178Z,47.80
2019-02-27T16:35:08.184Z,48.18
2019-02-27T16:37:00.748Z,47.99
2019-02-27T16:38:00.625Z,48.18
2019-02-27T16:39:55.199Z,49.14
2019-02-27T16:40:53.668Z,48.85
2019-02-27T16:42:46.442Z,48.93
2019-02-27T16:43:48.351Z,49.02
2019-02-27T16:45:39.178Z,49.69
2019-02-27T16:46:43.482Z,49.88
2019-02-27T16:48:34.610Z,49.60
2019-02-27T16:49:31.446Z,50.26
2019-02-27T16:51:24.123Z,49.88
2019-02-27T16:52:24.019Z,50.07
2019-02-27T16:54:16.706Z,50.36
2019-02-27T16:55:16.587Z,50.65
2019-02-27T16:57:09.259Z,51.39
2019-02-27T16:58:09.151Z,51.58
2019-02-27T17:00:01.976Z,51.68
2019-02-27T17:01:01.719Z,52.61
2019-02-27T17:02:56.890Z,53.47
2019-02-27T17:04:00.249Z,53.37
2019-02-27T17:05:49.679Z,53.47
2019-02-27T17:06:49.209Z,54.68
2019-02-27T17:08:40.669Z,55.07
2019-02-27T17:09:41.019Z,54.97
2019-02-27T17:11:33.198Z,54.97
2019-02-27T17:12:32.469Z,55.07
2019-02-27T17:14:25.150Z,56.31
2019-02-27T17:15:25.038Z,56.21
2019-02-27T17:17:18.811Z,56.31
2019-02-27T17:18:17.601Z,56.21
2019-02-27T17:20:12.579Z,56.31
2019-02-27T17:21:10.165Z,56.47
2019-02-27T17:23:06.850Z,56.47
2019-02-27T17:24:02.735Z,56.28
2019-02-27T17:25:55.431Z,57.33
2019-02-27T17:26:55.302Z,58.19
2019-02-27T17:28:48.636Z,58.67
2019-02-27T17:29:47.872Z,59.05
2019-02-27T17:31:48.974Z,60.36
2019-02-27T17:32:40.427Z,60.36
2019-02-27T17:34:33.106Z,59.98
2019-02-27T17:35:33.023Z,60.64
2019-02-27T17:37:26.179Z,60.46
2019-02-27T17:38:26.049Z,59.22
2019-02-27T17:40:18.718Z,59.22
2019-02-27T17:41:18.606Z,59.22
2019-02-27T17:43:11.304Z,59.31
2019-02-27T17:44:11.181Z,59.02
2019-02-27T17:46:04.848Z,59.12
2019-02-27T17:47:04.723Z,61.22
2019-02-27T17:48:57.420Z,61.13
2019-02-27T17:49:58.202Z,61.60
2019-02-27T17:51:50.150Z,62.43
2019-02-27T17:52:49.872Z,61.38
2019-02-27T17:54:43.078Z,62.05
2019-02-27T17:55:43.104Z,62.81
2019-02-27T17:57:35.772Z,62.81
2019-02-27T17:58:35.506Z,63.29
2019-02-27T18:00:28.629Z,63.86
2019-02-27T18:01:28.063Z,63.92
2019-02-27T18:03:20.750Z,64.78
2019-02-27T18:04:20.625Z,65.26
2019-02-27T18:06:13.331Z,65.45
2019-02-27T18:07:13.187Z,66.02
2019-02-27T18:09:05.926Z,66.78
2019-02-27T18:10:05.894Z,66.41
2019-02-27T18:11:59.030Z,67.07
2019-02-27T18:13:01.459Z,67.65
2019-02-27T18:14:51.563Z,67.99
2019-02-27T18:15:53.194Z,68.85
2019-02-27T18:17:44.149Z,69.62
2019-02-27T18:18:44.089Z,70.19
2019-02-27T18:20:36.689Z,70.19
2019-02-27T18:21:36.579Z,70.28
2019-02-27T18:23:29.266Z,70.38
2019-02-27T18:24:33.394Z,70.09
2019-02-27T18:26:21.812Z,71.91
2019-02-27T18:27:24.699Z,73.52
2019-02-27T18:29:14.394Z,73.05
2019-02-27T18:30:15.467Z,73.91
2019-02-27T18:32:06.965Z,74.38
2019-02-27T18:33:06.863Z,73.24
2019-02-27T18:34:59.498Z,74.67
2019-02-27T18:36:04.508Z,75.34
2019-02-27T18:37:54.281Z,76.48
2019-02-27T18:38:51.944Z,76.82
2019-02-27T18:40:44.770Z,77.11
2019-02-27T18:41:45.752Z,76.82
2019-02-27T18:43:37.219Z,77.40
2019-02-27T18:44:38.265Z,76.54
2019-02-27T18:46:29.749Z,76.54
2019-02-27T18:47:32.195Z,76.82
2019-02-27T18:49:22.331Z,77.20
2019-02-27T18:50:24.838Z,77.20
2019-02-27T18:52:21.472Z,77.78
2019-02-27T18:53:15.258Z,77.20
2019-02-27T18:55:08.087Z,77.20
2019-02-27T18:56:07.835Z,76.73
2019-02-27T18:58:00.521Z,77.20
2019-02-27T18:59:00.391Z,78.54
2019-02-27T19:00:53.066Z,78.44
2019-02-27T19:01:52.948Z,79.02
2019-02-27T19:03:45.792Z,79.59
2019-02-27T19:04:45.502Z,80.79
2019-02-27T19:06:38.176Z,81.07
2019-02-27T19:07:39.296Z,81.78
2019-02-27T19:09:32.474Z,81.78
2019-02-27T19:10:30.624Z,82.41
2019-02-27T19:12:28.363Z,82.31
2019-02-27T19:13:23.187Z,82.98
2019-02-27T19:15:16.355Z,83.65
2019-02-27T19:16:17.433Z,83.93
2019-02-27T19:18:08.927Z,83.55
2019-02-27T19:19:08.796Z,83.17
2019-02-27T19:21:01.468Z,84.12
2019-02-27T19:22:01.359Z,84.50
2019-02-27T19:23:54.040Z,84.22
2019-02-27T19:24:53.916Z,83.74
2019-02-27T19:26:46.731Z,84.50
2019-02-27T19:27:46.465Z,84.69
2019-02-27T19:29:39.170Z,84.69
2019-02-27T19:30:41.621Z,85.27
2019-02-27T19:32:32.683Z,84.98
2019-02-27T19:33:35.866Z,84.31
2019-02-27T19:35:25.428Z,85.32
2019-02-27T19:36:25.126Z,85.13
2019-02-27T19:38:17.834Z,85.03
2019-02-27T19:39:18.328Z,85.80
2019-02-27T19:41:10.367Z,85.32
2019-02-27T19:42:12.960Z,85.22
2019-02-27T19:44:02.964Z,85.03
2019-02-27T19:45:04.214Z,85.13
2019-02-27T19:46:55.521Z,84.56
2019-02-27T19:47:55.859Z,84.27
2019-02-27T19:49:48.085Z,84.75
2019-02-27T19:50:47.955Z,84.69
2019-02-27T19:52:40.608Z,83.70
2019-02-27T19:53:42.676Z,85.22
2019-02-27T19:55:33.185Z,85.32
2019-02-27T19:56:35.564Z,85.51
2019-02-27T19:58:25.729Z,85.32
2019-02-27T19:59:25.729Z,86.18
2019-02-27T20:01:18.301Z,85.60
2019-02-27T20:02:21.196Z,86.18
2019-02-27T20:04:12.783Z,82.18
2019-02-27T20:05:10.736Z,84.27
2019-02-27T20:07:03.563Z,83.80
2019-02-27T20:08:03.290Z,84.65
2019-02-27T20:09:56.137Z,85.41
2019-02-27T20:10:55.848Z,83.41
2019-02-27T20:12:52.695Z,82.27
2019-02-27T20:13:48.399Z,83.51
2019-02-27T20:15:42.712Z,83.41
2019-02-27T20:16:40.965Z,80.08
2019-02-27T20:18:33.636Z,83.41
2019-02-27T20:19:33.517Z,83.22
2019-02-27T20:21:26.206Z,83.13
2019-02-27T20:22:26.081Z,81.79
2019-02-27T20:24:18.781Z,79.03
2019-02-27T20:25:18.673Z,82.37
2019-02-27T20:27:11.356Z,80.75
2019-02-27T20:28:11.224Z,80.75
2019-02-27T20:30:04.441Z,77.89
2019-02-27T20:31:04.312Z,78.37
2019-02-27T20:32:59.806Z,77.98
2019-02-27T20:33:56.971Z,79.70
2019-02-27T20:35:52.348Z,81.32
2019-02-27T20:36:49.435Z,77.70
2019-02-27T20:38:42.097Z,80.84
2019-02-27T20:39:41.986Z,81.03
2019-02-27T20:41:39.676Z,82.08
2019-02-27T20:42:34.554Z,78.65
2019-02-27T20:44:27.385Z,78.27
2019-02-27T20:45:27.113Z,77.61
2019-02-27T20:47:21.884Z,75.79
2019-02-27T20:48:19.683Z,75.51
2019-02-27T20:50:12.391Z,75.26
2019-02-27T20:51:12.245Z,74.40
2019-02-27T20:53:04.935Z,73.83
2019-02-27T20:54:04.813Z,73.45
2019-02-27T20:55:57.498Z,73.36
2019-02-27T20:56:57.378Z,73.45
2019-02-27T20:58:52.000Z,72.97
2019-02-27T20:59:49.926Z,73.17
2019-02-27T21:01:46.710Z,73.36
2019-02-27T21:02:42.479Z,72.69
2019-02-27T21:04:35.886Z,72.78
2019-02-27T21:05:35.041Z,71.83
2019-02-27T21:07:27.722Z,71.96
2019-02-27T21:08:27.600Z,71.73
2019-02-27T21:10:21.160Z,71.45
2019-02-27T21:11:20.155Z,71.45
2019-02-27T21:13:15.967Z,71.55
2019-02-27T21:14:12.712Z,71.58
2019-02-27T21:16:09.459Z,71.39
2019-02-27T21:17:05.276Z,71.07
2019-02-27T21:18:57.951Z,71.30
2019-02-27T21:19:57.831Z,71.30
2019-02-27T21:21:53.650Z,71.01
2019-02-27T21:22:50.429Z,71.30
2019-02-27T21:24:43.058Z,71.30
2019-02-27T21:25:42.944Z,71.20
2019-02-27T21:27:35.619Z,71.48
2019-02-27T21:28:35.496Z,70.44
2019-02-27T21:30:28.162Z,71.30
2019-02-27T21:31:28.049Z,71.55
2019-02-27T21:33:20.734Z,71.11
2019-02-27T21:34:20.604Z,71.58
2019-02-27T21:36:13.278Z,71.93
2019-02-27T21:37:13.164Z,72.41
2019-02-27T21:39:05.857Z,72.72
2019-02-27T21:40:05.728Z,73.45
2019-02-27T21:41:58.410Z,73.83
2019-02-27T21:42:58.300Z,73.55
2019-02-27T21:44:50.986Z,73.93
2019-02-27T21:45:50.864Z,73.83
2019-02-27T21:47:43.527Z,74.31
2019-02-27T21:48:43.413Z,74.88
2019-02-27T21:50:39.654Z,75.36
2019-02-27T21:51:36.015Z,75.16
2019-02-27T21:53:29.500Z,76.12
2019-02-27T21:54:28.530Z,75.84
2019-02-27T21:56:21.206Z,76.50
2019-02-27T21:57:22.867Z,76.79
2019-02-27T21:59:14.259Z,76.21
2019-02-27T22:00:14.750Z,76.12
2019-02-27T22:02:06.795Z,76.73
2019-02-27T22:03:06.737Z,76.98
2019-02-27T22:04:59.881Z,77.97
2019-02-27T22:05:59.745Z,77.87
2019-02-27T22:07:52.418Z,77.64
2019-02-27T22:08:52.311Z,78.54
2019-02-27T22:10:44.986Z,78.35
2019-02-27T22:11:44.860Z,78.35
2019-02-27T22:13:37.536Z,78.25
2019-02-27T22:14:37.424Z,78.54
2019-02-27T22:16:30.608Z,77.69
2019-02-27T22:17:29.983Z,78.54
2019-02-27T22:19:22.660Z,78.25
2019-02-27T22:20:25.782Z,78.06
2019-02-27T22:22:15.213Z,78.16
2019-02-27T22:23:15.109Z,78.64
2019-02-27T22:25:07.787Z,78.54
2019-02-27T22:26:07.661Z,78.64
2019-02-27T22:28:00.359Z,78.73
2019-02-27T22:29:00.235Z,78.73
2019-02-27T22:30:52.929Z,78.92
2019-02-27T22:31:52.795Z,78.73
2019-02-27T22:33:45.464Z,78.92
2019-02-27T22:34:45.352Z,78.44
2019-02-27T22:36:38.027Z,78.64
2019-02-27T22:37:37.907Z,79.11
2019-02-27T22:39:31.619Z,79.30
2019-02-27T22:40:30.476Z,79.49
2019-02-27T22:42:23.141Z,79.59
2019-02-27T22:43:23.034Z,80.02
2019-02-27T22:45:15.691Z,80.83
2019-02-27T22:46:16.464Z,80.92
2019-02-27T22:48:08.263Z,80.07
2019-02-27T22:49:08.136Z,79.78
2019-02-27T22:51:00.800Z,79.83
2019-02-27T22:52:00.690Z,80.50
2019-02-27T22:53:53.373Z,81.26
2019-02-27T22:54:53.250Z,81.55
2019-02-27T22:56:50.215Z,82.41
2019-02-27T22:57:45.804Z,81.93
2019-02-27T22:59:38.507Z,82.50
